sensor_id;sensor_type;location;lat;lon;timestamp;temperature;humidity
19152;DHT22;9708;53.114;9.388;2023-04-19T00:01:19;7.10;99.90
19152;DHT22;9708;53.114;9.388;2023-04-19T00:03:47;7.10;99.90
19152;DHT22;9708;53.114;9.388;2023-04-19T00:06:14;7.00;99.90
19152;DHT22;9708;53.114;9.388;2023-04-19T00:08:43;6.90;99.90
19152;DHT22;9708;53.114;9.388;2023-04-19T00:11:10;6.90;99.90
19152;DHT22;9708;53.114;9.388;2023-04-19T00:13:36;6.80;99.90
19152;DHT22;9708;53.114;9.388;2023-04-19T00:16:05;6.70;99.90
19152;DHT22;9708;53.114;9.388;2023-04-19T00:18:31;6.70;99.90
19152;DHT22;9708;53.114;9.388;2023-04-19T00:20:58;6.60;99.90
19152;DHT22;9708;53.114;9.388;2023-04-19T00:23:27;6.50;99.90
19152;DHT22;9708;53.114;9.388;2023-04-19T00:25:55;6.70;99.90
19152;DHT22;9708;53.114;9.388;2023-04-19T00:28:23;6.70;99.90
19152;DHT22;9708;53.114;9.388;2023-04-19T00:30:50;6.60;99.90
19152;DHT22;9708;53.114;9.388;2023-04-19T00:33:17;6.60;99.90
19152;DHT22;9708;53.114;9.388;2023-04-19T00:35:44;6.50;99.90
19152;DHT22;9708;53.114;9.388;2023-04-19T00:38:11;6.30;99.90
19152;DHT22;9708;53.114;9.388;2023-04-19T00:40:37;6.20;99.90
19152;DHT22;9708;53.114;9.388;2023-04-19T00:43:06;6.20;99.90
19152;DHT22;9708;53.114;9.388;2023-04-19T00:45:34;6.30;99.90
19152;DHT22;9708;53.114;9.388;2023-04-19T00:48:01;6.20;99.90
19152;DHT22;9708;53.114;9.388;2023-04-19T00:50:28;6.20;99.90
19152;DHT22;9708;53.114;9.388;2023-04-19T00:52:55;6.10;99.90
19152;DHT22;9708;53.114;9.388;2023-04-19T00:55:22;6.20;99.90
19152;DHT22;9708;53.114;9.388;2023-04-19T00:57:49;6.10;99.90
19152;DHT22;9708;53.114;9.388;2023-04-19T01:00:18;6.10;99.90
19152;DHT22;9708;53.114;9.388;2023-04-19T01:02:45;6.20;99.90
19152;DHT22;9708;53.114;9.388;2023-04-19T01:05:12;6.20;99.90
19152;DHT22;9708;53.114;9.388;2023-04-19T01:07:39;6.10;99.90
19152;DHT22;9708;53.114;9.388;2023-04-19T01:10:06;6.20;99.90
19152;DHT22;9708;53.114;9.388;2023-04-19T01:12:33;6.20;99.90
19152;DHT22;9708;53.114;9.388;2023-04-19T01:15:00;6.20;99.90
19152;DHT22;9708;53.114;9.388;2023-04-19T01:17:31;6.10;99.90
19152;DHT22;9708;53.114;9.388;2023-04-19T01:19:58;6.10;99.90
19152;DHT22;9708;53.114;9.388;2023-04-19T01:22:27;6.10;99.90
19152;DHT22;9708;53.114;9.388;2023-04-19T01:24:56;6.10;99.90
19152;DHT22;9708;53.114;9.388;2023-04-19T01:27:23;6.10;99.90
19152;DHT22;9708;53.114;9.388;2023-04-19T01:29:50;6.10;99.90
19152;DHT22;9708;53.114;9.388;2023-04-19T01:32:17;6.00;99.90
19152;DHT22;9708;53.114;9.388;2023-04-19T01:34:43;5.90;99.90
19152;DHT22;9708;53.114;9.388;2023-04-19T01:37:10;6.00;99.90
19152;DHT22;9708;53.114;9.388;2023-04-19T01:39:38;6.10;99.90
19152;DHT22;9708;53.114;9.388;2023-04-19T01:42:05;6.00;99.90
19152;DHT22;9708;53.114;9.388;2023-04-19T01:44:32;5.90;99.90
19152;DHT22;9708;53.114;9.388;2023-04-19T01:46:59;5.90;99.90
19152;DHT22;9708;53.114;9.388;2023-04-19T01:49:25;5.80;99.90
19152;DHT22;9708;53.114;9.388;2023-04-19T01:51:52;5.90;99.90
19152;DHT22;9708;53.114;9.388;2023-04-19T01:54:19;5.80;99.90
19152;DHT22;9708;53.114;9.388;2023-04-19T01:56:47;5.80;99.90
19152;DHT22;9708;53.114;9.388;2023-04-19T01:59:14;5.80;99.90
19152;DHT22;9708;53.114;9.388;2023-04-19T02:01:41;5.80;99.90
19152;DHT22;9708;53.114;9.388;2023-04-19T02:04:08;5.60;99.90
19152;DHT22;9708;53.114;9.388;2023-04-19T02:06:35;5.60;99.90
19152;DHT22;9708;53.114;9.388;2023-04-19T02:09:02;5.50;99.90
19152;DHT22;9708;53.114;9.388;2023-04-19T02:11:29;5.40;99.90
19152;DHT22;9708;53.114;9.388;2023-04-19T02:13:57;5.30;99.90
19152;DHT22;9708;53.114;9.388;2023-04-19T02:16:23;5.30;99.90
19152;DHT22;9708;53.114;9.388;2023-04-19T02:18:50;5.30;99.90
19152;DHT22;9708;53.114;9.388;2023-04-19T02:21:17;5.20;99.90
19152;DHT22;9708;53.114;9.388;2023-04-19T02:23:44;5.20;99.90
19152;DHT22;9708;53.114;9.388;2023-04-19T02:26:11;5.20;99.90
19152;DHT22;9708;53.114;9.388;2023-04-19T02:28:38;5.20;99.90
19152;DHT22;9708;53.114;9.388;2023-04-19T02:31:07;5.20;99.90
19152;DHT22;9708;53.114;9.388;2023-04-19T02:33:33;5.10;99.90
19152;DHT22;9708;53.114;9.388;2023-04-19T02:36:00;5.00;99.90
19152;DHT22;9708;53.114;9.388;2023-04-19T02:38:27;5.00;99.90
19152;DHT22;9708;53.114;9.388;2023-04-19T02:40:54;4.90;99.90
19152;DHT22;9708;53.114;9.388;2023-04-19T02:43:21;4.90;99.90
19152;DHT22;9708;53.114;9.388;2023-04-19T02:45:48;4.80;99.90
19152;DHT22;9708;53.114;9.388;2023-04-19T02:48:17;4.70;99.90
19152;DHT22;9708;53.114;9.388;2023-04-19T02:50:43;4.70;99.90
19152;DHT22;9708;53.114;9.388;2023-04-19T02:53:10;4.50;99.90
19152;DHT22;9708;53.114;9.388;2023-04-19T02:55:37;4.40;99.90
19152;DHT22;9708;53.114;9.388;2023-04-19T02:58:04;4.40;99.90
19152;DHT22;9708;53.114;9.388;2023-04-19T03:00:31;4.30;99.90
19152;DHT22;9708;53.114;9.388;2023-04-19T03:02:58;4.20;99.90
19152;DHT22;9708;53.114;9.388;2023-04-19T03:05:28;4.20;99.90
19152;DHT22;9708;53.114;9.388;2023-04-19T03:07:55;4.20;99.90
19152;DHT22;9708;53.114;9.388;2023-04-19T03:10:22;4.10;99.90
19152;DHT22;9708;53.114;9.388;2023-04-19T03:12:48;4.10;99.90
19152;DHT22;9708;53.114;9.388;2023-04-19T03:15:16;4.00;99.90
19152;DHT22;9708;53.114;9.388;2023-04-19T03:17:43;3.90;99.90
19152;DHT22;9708;53.114;9.388;2023-04-19T03:20:11;3.90;99.90
19152;DHT22;9708;53.114;9.388;2023-04-19T03:22:39;3.80;99.90
19152;DHT22;9708;53.114;9.388;2023-04-19T03:25:06;3.80;99.90
19152;DHT22;9708;53.114;9.388;2023-04-19T03:27:34;3.80;99.90
19152;DHT22;9708;53.114;9.388;2023-04-19T03:30:01;3.80;99.90
19152;DHT22;9708;53.114;9.388;2023-04-19T03:32:30;3.70;99.90
19152;DHT22;9708;53.114;9.388;2023-04-19T03:34:57;3.70;99.90
19152;DHT22;9708;53.114;9.388;2023-04-19T03:37:23;3.70;99.90
19152;DHT22;9708;53.114;9.388;2023-04-19T03:39:52;3.60;99.90
19152;DHT22;9708;53.114;9.388;2023-04-19T03:42:18;3.60;99.90
19152;DHT22;9708;53.114;9.388;2023-04-19T03:44:45;3.60;99.90
19152;DHT22;9708;53.114;9.388;2023-04-19T03:47:12;3.50;99.90
19152;DHT22;9708;53.114;9.388;2023-04-19T03:49:39;3.50;99.90
19152;DHT22;9708;53.114;9.388;2023-04-19T03:52:05;3.40;99.90
19152;DHT22;9708;53.114;9.388;2023-04-19T03:54:32;3.50;99.90
19152;DHT22;9708;53.114;9.388;2023-04-19T03:57:00;3.50;99.90
19152;DHT22;9708;53.114;9.388;2023-04-19T03:59:27;3.40;99.90
19152;DHT22;9708;53.114;9.388;2023-04-19T04:01:54;3.40;99.90
19152;DHT22;9708;53.114;9.388;2023-04-19T04:04:21;3.40;99.90
19152;DHT22;9708;53.114;9.388;2023-04-19T04:06:48;3.40;99.90
19152;DHT22;9708;53.114;9.388;2023-04-19T04:09:15;3.40;99.90
19152;DHT22;9708;53.114;9.388;2023-04-19T04:11:42;3.30;99.90
19152;DHT22;9708;53.114;9.388;2023-04-19T04:14:10;3.20;99.90
19152;DHT22;9708;53.114;9.388;2023-04-19T04:16:37;3.20;99.90
19152;DHT22;9708;53.114;9.388;2023-04-19T04:19:04;3.30;99.90
19152;DHT22;9708;53.114;9.388;2023-04-19T04:21:31;3.20;99.90
19152;DHT22;9708;53.114;9.388;2023-04-19T04:23:58;3.30;99.90
19152;DHT22;9708;53.114;9.388;2023-04-19T04:26:26;3.30;99.90
19152;DHT22;9708;53.114;9.388;2023-04-19T04:28:55;3.30;99.90
19152;DHT22;9708;53.114;9.388;2023-04-19T04:31:23;3.30;99.90
19152;DHT22;9708;53.114;9.388;2023-04-19T04:33:50;3.30;99.90
19152;DHT22;9708;53.114;9.388;2023-04-19T04:36:18;3.40;99.90
19152;DHT22;9708;53.114;9.388;2023-04-19T04:38:45;3.50;99.90
19152;DHT22;9708;53.114;9.388;2023-04-19T04:41:12;3.60;99.90
19152;DHT22;9708;53.114;9.388;2023-04-19T04:43:38;3.60;99.90
19152;DHT22;9708;53.114;9.388;2023-04-19T04:46:05;3.70;99.90
19152;DHT22;9708;53.114;9.388;2023-04-19T04:48:33;3.80;99.90
19152;DHT22;9708;53.114;9.388;2023-04-19T04:51:00;3.80;99.90
19152;DHT22;9708;53.114;9.388;2023-04-19T04:53:28;3.90;99.90
19152;DHT22;9708;53.114;9.388;2023-04-19T04:55:54;4.00;99.90
19152;DHT22;9708;53.114;9.388;2023-04-19T04:58:21;4.10;99.90
19152;DHT22;9708;53.114;9.388;2023-04-19T05:00:48;4.20;99.90
19152;DHT22;9708;53.114;9.388;2023-04-19T05:03:15;4.30;99.90
19152;DHT22;9708;53.114;9.388;2023-04-19T05:05:43;4.40;99.90
19152;DHT22;9708;53.114;9.388;2023-04-19T05:08:10;4.60;99.90
19152;DHT22;9708;53.114;9.388;2023-04-19T05:10:37;4.70;99.90
19152;DHT22;9708;53.114;9.388;2023-04-19T05:13:04;5.00;99.90
19152;DHT22;9708;53.114;9.388;2023-04-19T05:15:30;5.10;99.90
19152;DHT22;9708;53.114;9.388;2023-04-19T05:17:57;5.40;99.90
19152;DHT22;9708;53.114;9.388;2023-04-19T05:20:24;5.50;99.90
19152;DHT22;9708;53.114;9.388;2023-04-19T05:22:57;5.50;99.90
19152;DHT22;9708;53.114;9.388;2023-04-19T05:25:24;5.80;99.90
19152;DHT22;9708;53.114;9.388;2023-04-19T05:27:51;5.90;99.90
19152;DHT22;9708;53.114;9.388;2023-04-19T05:30:18;6.00;99.90
19152;DHT22;9708;53.114;9.388;2023-04-19T05:32:46;6.30;99.90
19152;DHT22;9708;53.114;9.388;2023-04-19T05:35:12;6.60;99.90
19152;DHT22;9708;53.114;9.388;2023-04-19T05:37:39;6.90;99.90
19152;DHT22;9708;53.114;9.388;2023-04-19T05:40:08;6.90;99.90
19152;DHT22;9708;53.114;9.388;2023-04-19T05:42:37;7.10;99.90
19152;DHT22;9708;53.114;9.388;2023-04-19T05:45:04;7.30;99.90
19152;DHT22;9708;53.114;9.388;2023-04-19T05:47:31;7.50;99.90
19152;DHT22;9708;53.114;9.388;2023-04-19T05:49:58;7.60;99.90
19152;DHT22;9708;53.114;9.388;2023-04-19T05:52:25;7.60;99.90
19152;DHT22;9708;53.114;9.388;2023-04-19T05:54:52;7.60;99.90
19152;DHT22;9708;53.114;9.388;2023-04-19T05:57:20;7.80;99.90
19152;DHT22;9708;53.114;9.388;2023-04-19T05:59:47;7.90;99.90
19152;DHT22;9708;53.114;9.388;2023-04-19T06:02:14;8.30;99.90
19152;DHT22;9708;53.114;9.388;2023-04-19T06:04:41;9.20;99.90
19152;DHT22;9708;53.114;9.388;2023-04-19T06:07:08;10.10;99.90
19152;DHT22;9708;53.114;9.388;2023-04-19T06:09:34;10.90;99.90
19152;DHT22;9708;53.114;9.388;2023-04-19T06:12:01;11.30;99.90
19152;DHT22;9708;53.114;9.388;2023-04-19T06:14:30;12.10;99.90
19152;DHT22;9708;53.114;9.388;2023-04-19T06:16:56;12.90;99.90
19152;DHT22;9708;53.114;9.388;2023-04-19T06:19:23;13.90;99.90
19152;DHT22;9708;53.114;9.388;2023-04-19T06:21:50;14.30;99.90
19152;DHT22;9708;53.114;9.388;2023-04-19T06:24:17;14.70;99.90
19152;DHT22;9708;53.114;9.388;2023-04-19T06:26:43;15.60;99.90
19152;DHT22;9708;53.114;9.388;2023-04-19T06:29:12;15.70;99.90
19152;DHT22;9708;53.114;9.388;2023-04-19T06:31:40;16.80;99.90
19152;DHT22;9708;53.114;9.388;2023-04-19T06:34:07;16.80;99.90
19152;DHT22;9708;53.114;9.388;2023-04-19T06:36:35;16.40;99.90
19152;DHT22;9708;53.114;9.388;2023-04-19T06:39:02;16.40;99.90
19152;DHT22;9708;53.114;9.388;2023-04-19T06:41:29;17.00;99.90
19152;DHT22;9708;53.114;9.388;2023-04-19T06:43:56;16.50;99.90
19152;DHT22;9708;53.114;9.388;2023-04-19T06:46:23;16.90;99.90
19152;DHT22;9708;53.114;9.388;2023-04-19T06:48:53;17.60;99.90
19152;DHT22;9708;53.114;9.388;2023-04-19T06:51:20;17.70;99.90
19152;DHT22;9708;53.114;9.388;2023-04-19T06:53:48;17.20;99.90
19152;DHT22;9708;53.114;9.388;2023-04-19T06:56:15;17.20;99.90
19152;DHT22;9708;53.114;9.388;2023-04-19T06:58:42;16.20;99.90
19152;DHT22;9708;53.114;9.388;2023-04-19T07:01:08;16.60;99.90
19152;DHT22;9708;53.114;9.388;2023-04-19T07:03:36;16.90;99.90
19152;DHT22;9708;53.114;9.388;2023-04-19T07:06:04;16.80;99.90
19152;DHT22;9708;53.114;9.388;2023-04-19T07:08:31;17.30;99.90
19152;DHT22;9708;53.114;9.388;2023-04-19T07:10:58;17.50;99.90
19152;DHT22;9708;53.114;9.388;2023-04-19T07:13:25;17.20;99.90
19152;DHT22;9708;53.114;9.388;2023-04-19T07:15:52;17.80;99.90
19152;DHT22;9708;53.114;9.388;2023-04-19T07:18:18;18.20;99.90
19152;DHT22;9708;53.114;9.388;2023-04-19T07:20:45;18.40;99.90
19152;DHT22;9708;53.114;9.388;2023-04-19T07:23:15;18.50;99.90
19152;DHT22;9708;53.114;9.388;2023-04-19T07:25:42;18.70;99.90
19152;DHT22;9708;53.114;9.388;2023-04-19T07:28:09;18.10;99.90
19152;DHT22;9708;53.114;9.388;2023-04-19T07:30:36;17.70;99.90
19152;DHT22;9708;53.114;9.388;2023-04-19T07:33:03;18.50;99.90
19152;DHT22;9708;53.114;9.388;2023-04-19T07:35:30;18.30;99.90
19152;DHT22;9708;53.114;9.388;2023-04-19T07:37:57;17.40;99.90
19152;DHT22;9708;53.114;9.388;2023-04-19T07:40:25;16.90;99.90
19152;DHT22;9708;53.114;9.388;2023-04-19T07:42:54;16.70;99.90
19152;DHT22;9708;53.114;9.388;2023-04-19T07:45:21;17.00;99.90
19152;DHT22;9708;53.114;9.388;2023-04-19T07:47:48;17.00;99.90
19152;DHT22;9708;53.114;9.388;2023-04-19T07:50:14;16.80;99.90
19152;DHT22;9708;53.114;9.388;2023-04-19T07:52:42;17.00;99.90
19152;DHT22;9708;53.114;9.388;2023-04-19T07:55:09;16.40;99.90
19152;DHT22;9708;53.114;9.388;2023-04-19T07:57:37;17.20;99.90
19152;DHT22;9708;53.114;9.388;2023-04-19T08:00:05;17.20;99.90
19152;DHT22;9708;53.114;9.388;2023-04-19T08:02:34;17.50;99.90
19152;DHT22;9708;53.114;9.388;2023-04-19T08:05:01;17.50;99.90
19152;DHT22;9708;53.114;9.388;2023-04-19T08:07:28;16.50;99.90
19152;DHT22;9708;53.114;9.388;2023-04-19T08:09:55;16.20;99.90
19152;DHT22;9708;53.114;9.388;2023-04-19T08:12:22;16.60;99.90
19152;DHT22;9708;53.114;9.388;2023-04-19T08:14:50;16.80;99.90
19152;DHT22;9708;53.114;9.388;2023-04-19T08:17:17;16.90;99.90
19152;DHT22;9708;53.114;9.388;2023-04-19T08:19:46;16.70;99.90
19152;DHT22;9708;53.114;9.388;2023-04-19T08:22:13;16.40;99.90
19152;DHT22;9708;53.114;9.388;2023-04-19T08:24:40;16.10;99.90
19152;DHT22;9708;53.114;9.388;2023-04-19T08:27:08;16.10;99.90
19152;DHT22;9708;53.114;9.388;2023-04-19T08:29:35;16.10;99.90
19152;DHT22;9708;53.114;9.388;2023-04-19T08:32:03;16.70;99.90
19152;DHT22;9708;53.114;9.388;2023-04-19T08:34:30;17.50;99.90
19152;DHT22;9708;53.114;9.388;2023-04-19T08:36:57;17.60;99.90
19152;DHT22;9708;53.114;9.388;2023-04-19T08:39:24;17.80;99.90
19152;DHT22;9708;53.114;9.388;2023-04-19T08:41:51;17.60;99.90
19152;DHT22;9708;53.114;9.388;2023-04-19T08:44:18;17.30;99.90
19152;DHT22;9708;53.114;9.388;2023-04-19T08:46:46;17.50;99.90
19152;DHT22;9708;53.114;9.388;2023-04-19T08:49:16;17.50;99.90
19152;DHT22;9708;53.114;9.388;2023-04-19T08:51:45;17.50;99.90
19152;DHT22;9708;53.114;9.388;2023-04-19T08:54:13;17.60;99.90
19152;DHT22;9708;53.114;9.388;2023-04-19T08:56:40;17.80;99.90
19152;DHT22;9708;53.114;9.388;2023-04-19T08:59:07;18.20;99.90
19152;DHT22;9708;53.114;9.388;2023-04-19T09:01:34;18.10;99.90
19152;DHT22;9708;53.114;9.388;2023-04-19T09:04:02;18.00;99.90
19152;DHT22;9708;53.114;9.388;2023-04-19T09:06:34;18.20;99.90
19152;DHT22;9708;53.114;9.388;2023-04-19T09:09:13;18.10;99.90
19152;DHT22;9708;53.114;9.388;2023-04-19T09:11:40;18.10;99.90
19152;DHT22;9708;53.114;9.388;2023-04-19T09:14:07;18.00;99.90
19152;DHT22;9708;53.114;9.388;2023-04-19T09:16:35;18.10;99.90
19152;DHT22;9708;53.114;9.388;2023-04-19T09:19:03;18.00;99.90
19152;DHT22;9708;53.114;9.388;2023-04-19T09:21:32;17.80;99.90
19152;DHT22;9708;53.114;9.388;2023-04-19T09:23:59;17.50;99.90
19152;DHT22;9708;53.114;9.388;2023-04-19T09:26:26;17.30;99.90
19152;DHT22;9708;53.114;9.388;2023-04-19T09:28:55;17.30;99.90
19152;DHT22;9708;53.114;9.388;2023-04-19T09:31:23;17.50;99.90
19152;DHT22;9708;53.114;9.388;2023-04-19T09:33:50;17.60;99.90
19152;DHT22;9708;53.114;9.388;2023-04-19T09:36:29;17.50;99.90
19152;DHT22;9708;53.114;9.388;2023-04-19T09:38:58;17.50;98.50
19152;DHT22;9708;53.114;9.388;2023-04-19T09:41:25;17.30;99.90
19152;DHT22;9708;53.114;9.388;2023-04-19T09:43:52;16.90;97.00
19152;DHT22;9708;53.114;9.388;2023-04-19T09:46:29;17.10;97.00
19152;DHT22;9708;53.114;9.388;2023-04-19T09:49:14;17.30;97.80
19152;DHT22;9708;53.114;9.388;2023-04-19T09:51:41;17.70;98.70
19152;DHT22;9708;53.114;9.388;2023-04-19T09:54:11;18.00;96.70
19152;DHT22;9708;53.114;9.388;2023-04-19T09:56:39;17.70;97.30
19152;DHT22;9708;53.114;9.388;2023-04-19T09:59:07;18.30;98.20
19152;DHT22;9708;53.114;9.388;2023-04-19T10:01:37;18.90;98.50
19152;DHT22;9708;53.114;9.388;2023-04-19T10:04:06;18.80;98.40
19152;DHT22;9708;53.114;9.388;2023-04-19T10:06:34;18.50;95.60
19152;DHT22;9708;53.114;9.388;2023-04-19T10:09:02;19.30;96.40
19152;DHT22;9708;53.114;9.388;2023-04-19T10:11:32;18.90;94.80
19152;DHT22;9708;53.114;9.388;2023-04-19T10:14:04;19.40;93.40
19152;DHT22;9708;53.114;9.388;2023-04-19T10:16:32;18.50;92.90
19152;DHT22;9708;53.114;9.388;2023-04-19T10:19:00;18.60;93.90
19152;DHT22;9708;53.114;9.388;2023-04-19T10:21:28;18.90;95.20
19152;DHT22;9708;53.114;9.388;2023-04-19T10:23:56;19.20;94.30
19152;DHT22;9708;53.114;9.388;2023-04-19T10:26:23;18.80;94.80
19152;DHT22;9708;53.114;9.388;2023-04-19T10:28:53;19.10;93.70
19152;DHT22;9708;53.114;9.388;2023-04-19T10:31:20;19.20;92.20
19152;DHT22;9708;53.114;9.388;2023-04-19T10:33:48;19.00;91.10
19152;DHT22;9708;53.114;9.388;2023-04-19T10:36:16;18.70;89.80
19152;DHT22;9708;53.114;9.388;2023-04-19T10:38:44;18.70;91.50
19152;DHT22;9708;53.114;9.388;2023-04-19T10:41:12;18.60;90.10
19152;DHT22;9708;53.114;9.388;2023-04-19T10:43:42;18.70;90.10
19152;DHT22;9708;53.114;9.388;2023-04-19T10:46:13;18.40;90.10
19152;DHT22;9708;53.114;9.388;2023-04-19T10:48:49;18.50;92.00
19152;DHT22;9708;53.114;9.388;2023-04-19T10:51:19;18.50;91.30
19152;DHT22;9708;53.114;9.388;2023-04-19T10:53:51;18.30;89.90
19152;DHT22;9708;53.114;9.388;2023-04-19T10:56:21;18.10;87.50
19152;DHT22;9708;53.114;9.388;2023-04-19T10:59:15;18.10;91.20
19152;DHT22;9708;53.114;9.388;2023-04-19T11:01:59;18.00;88.10
19152;DHT22;9708;53.114;9.388;2023-04-19T11:07:37;18.30;90.10
19152;DHT22;9708;53.114;9.388;2023-04-19T11:10:06;18.90;91.50
19152;DHT22;9708;53.114;9.388;2023-04-19T11:12:33;19.40;90.10
19152;DHT22;9708;53.114;9.388;2023-04-19T11:15:00;19.10;89.80
19152;DHT22;9708;53.114;9.388;2023-04-19T11:17:29;19.00;90.00
19152;DHT22;9708;53.114;9.388;2023-04-19T11:19:58;18.20;87.40
19152;DHT22;9708;53.114;9.388;2023-04-19T11:22:29;18.10;88.90
19152;DHT22;9708;53.114;9.388;2023-04-19T11:25:03;18.00;87.50
19152;DHT22;9708;53.114;9.388;2023-04-19T11:27:31;18.00;87.50
19152;DHT22;9708;53.114;9.388;2023-04-19T11:30:01;18.20;85.50
19152;DHT22;9708;53.114;9.388;2023-04-19T11:32:30;18.30;89.30
19152;DHT22;9708;53.114;9.388;2023-04-19T11:34:57;18.50;86.10
19152;DHT22;9708;53.114;9.388;2023-04-19T11:37:23;18.40;85.50
19152;DHT22;9708;53.114;9.388;2023-04-19T11:39:50;18.50;89.40
19152;DHT22;9708;53.114;9.388;2023-04-19T11:42:18;18.80;90.80
19152;DHT22;9708;53.114;9.388;2023-04-19T11:44:49;19.20;88.20
19152;DHT22;9708;53.114;9.388;2023-04-19T11:47:16;19.20;89.90
19152;DHT22;9708;53.114;9.388;2023-04-19T11:49:44;19.20;84.80
19152;DHT22;9708;53.114;9.388;2023-04-19T11:52:13;18.80;87.10
19152;DHT22;9708;53.114;9.388;2023-04-19T11:54:45;18.70;87.80
19152;DHT22;9708;53.114;9.388;2023-04-19T11:57:12;19.10;85.10
19152;DHT22;9708;53.114;9.388;2023-04-19T12:00:03;18.70;83.10
19152;DHT22;9708;53.114;9.388;2023-04-19T12:02:36;18.40;79.80
19152;DHT22;9708;53.114;9.388;2023-04-19T12:05:21;19.10;81.00
19152;DHT22;9708;53.114;9.388;2023-04-19T12:08:02;18.50;83.50
19152;DHT22;9708;53.114;9.388;2023-04-19T12:10:29;19.00;85.00
19152;DHT22;9708;53.114;9.388;2023-04-19T12:12:56;19.10;90.80
19152;DHT22;9708;53.114;9.388;2023-04-19T12:15:23;19.70;85.30
19152;DHT22;9708;53.114;9.388;2023-04-19T12:18:06;19.60;80.60
19152;DHT22;9708;53.114;9.388;2023-04-19T12:20:35;19.00;78.10
19152;DHT22;9708;53.114;9.388;2023-04-19T12:23:02;18.50;77.70
19152;DHT22;9708;53.114;9.388;2023-04-19T12:25:30;18.10;78.30
19152;DHT22;9708;53.114;9.388;2023-04-19T12:27:58;18.10;78.70
19152;DHT22;9708;53.114;9.388;2023-04-19T12:30:25;18.10;79.70
19152;DHT22;9708;53.114;9.388;2023-04-19T12:32:52;18.40;86.80
19152;DHT22;9708;53.114;9.388;2023-04-19T12:35:20;18.60;79.50
19152;DHT22;9708;53.114;9.388;2023-04-19T12:37:48;18.70;84.20
19152;DHT22;9708;53.114;9.388;2023-04-19T12:40:16;18.70;77.00
19152;DHT22;9708;53.114;9.388;2023-04-19T12:42:43;18.10;78.60
19152;DHT22;9708;53.114;9.388;2023-04-19T12:45:10;17.50;79.00
19152;DHT22;9708;53.114;9.388;2023-04-19T12:47:37;17.60;82.20
19152;DHT22;9708;53.114;9.388;2023-04-19T12:50:06;17.70;80.90
19152;DHT22;9708;53.114;9.388;2023-04-19T12:52:33;18.30;83.00
19152;DHT22;9708;53.114;9.388;2023-04-19T12:55:01;18.10;80.60
19152;DHT22;9708;53.114;9.388;2023-04-19T12:57:28;17.80;79.60
19152;DHT22;9708;53.114;9.388;2023-04-19T12:59:55;17.20;79.90
19152;DHT22;9708;53.114;9.388;2023-04-19T13:02:22;17.00;81.30
19152;DHT22;9708;53.114;9.388;2023-04-19T13:04:49;17.00;80.90
19152;DHT22;9708;53.114;9.388;2023-04-19T13:07:16;16.60;79.60
19152;DHT22;9708;53.114;9.388;2023-04-19T13:09:43;16.50;82.20
19152;DHT22;9708;53.114;9.388;2023-04-19T13:12:11;16.70;81.80
19152;DHT22;9708;53.114;9.388;2023-04-19T13:14:38;16.60;80.00
19152;DHT22;9708;53.114;9.388;2023-04-19T13:17:05;17.00;81.70
19152;DHT22;9708;53.114;9.388;2023-04-19T13:19:31;17.00;80.60
19152;DHT22;9708;53.114;9.388;2023-04-19T13:21:58;16.70;82.70
19152;DHT22;9708;53.114;9.388;2023-04-19T13:24:25;16.90;82.40
19152;DHT22;9708;53.114;9.388;2023-04-19T13:26:52;17.20;85.00
19152;DHT22;9708;53.114;9.388;2023-04-19T13:29:20;17.60;84.20
19152;DHT22;9708;53.114;9.388;2023-04-19T13:31:47;17.20;80.50
19152;DHT22;9708;53.114;9.388;2023-04-19T13:34:14;17.20;79.10
19152;DHT22;9708;53.114;9.388;2023-04-19T13:36:42;17.10;82.00
19152;DHT22;9708;53.114;9.388;2023-04-19T13:39:08;17.20;80.10
19152;DHT22;9708;53.114;9.388;2023-04-19T13:41:35;16.70;79.50
19152;DHT22;9708;53.114;9.388;2023-04-19T13:44:02;16.70;79.30
19152;DHT22;9708;53.114;9.388;2023-04-19T13:46:30;16.80;82.80
19152;DHT22;9708;53.114;9.388;2023-04-19T13:48:58;16.90;79.60
19152;DHT22;9708;53.114;9.388;2023-04-19T13:51:25;16.50;83.70
19152;DHT22;9708;53.114;9.388;2023-04-19T13:53:52;16.50;82.00
19152;DHT22;9708;53.114;9.388;2023-04-19T13:56:19;16.40;83.80
19152;DHT22;9708;53.114;9.388;2023-04-19T13:58:46;16.20;82.70
19152;DHT22;9708;53.114;9.388;2023-04-19T14:01:12;15.70;82.40
19152;DHT22;9708;53.114;9.388;2023-04-19T14:03:41;15.90;83.60
19152;DHT22;9708;53.114;9.388;2023-04-19T14:06:07;15.80;81.20
19152;DHT22;9708;53.114;9.388;2023-04-19T14:08:34;15.40;81.20
19152;DHT22;9708;53.114;9.388;2023-04-19T14:11:01;15.30;83.00
19152;DHT22;9708;53.114;9.388;2023-04-19T14:13:28;15.10;83.20
19152;DHT22;9708;53.114;9.388;2023-04-19T14:15:54;15.00;83.10
19152;DHT22;9708;53.114;9.388;2023-04-19T14:18:21;14.70;82.40
19152;DHT22;9708;53.114;9.388;2023-04-19T14:20:49;14.70;82.30
19152;DHT22;9708;53.114;9.388;2023-04-19T14:23:16;14.80;86.10
19152;DHT22;9708;53.114;9.388;2023-04-19T14:25:43;14.60;82.00
19152;DHT22;9708;53.114;9.388;2023-04-19T14:28:10;14.70;84.80
19152;DHT22;9708;53.114;9.388;2023-04-19T14:30:37;14.70;82.70
19152;DHT22;9708;53.114;9.388;2023-04-19T14:33:04;14.50;80.40
19152;DHT22;9708;53.114;9.388;2023-04-19T14:35:31;14.30;82.70
19152;DHT22;9708;53.114;9.388;2023-04-19T14:37:59;14.40;83.40
19152;DHT22;9708;53.114;9.388;2023-04-19T14:40:26;14.30;82.20
19152;DHT22;9708;53.114;9.388;2023-04-19T14:42:53;14.10;82.00
19152;DHT22;9708;53.114;9.388;2023-04-19T14:45:19;13.90;81.60
19152;DHT22;9708;53.114;9.388;2023-04-19T14:47:46;13.80;83.60
19152;DHT22;9708;53.114;9.388;2023-04-19T14:50:13;13.70;81.20
19152;DHT22;9708;53.114;9.388;2023-04-19T14:52:40;13.70;82.20
19152;DHT22;9708;53.114;9.388;2023-04-19T14:55:09;13.70;83.90
19152;DHT22;9708;53.114;9.388;2023-04-19T14:57:36;13.60;84.10
19152;DHT22;9708;53.114;9.388;2023-04-19T15:00:04;13.60;83.00
19152;DHT22;9708;53.114;9.388;2023-04-19T15:02:31;13.50;83.90
19152;DHT22;9708;53.114;9.388;2023-04-19T15:04:57;13.60;84.40
19152;DHT22;9708;53.114;9.388;2023-04-19T15:07:24;13.60;84.50
19152;DHT22;9708;53.114;9.388;2023-04-19T15:09:52;13.50;82.30
19152;DHT22;9708;53.114;9.388;2023-04-19T15:12:20;13.30;84.60
19152;DHT22;9708;53.114;9.388;2023-04-19T15:14:47;13.30;84.80
19152;DHT22;9708;53.114;9.388;2023-04-19T15:17:14;13.20;83.70
19152;DHT22;9708;53.114;9.388;2023-04-19T15:19:41;13.30;86.00
19152;DHT22;9708;53.114;9.388;2023-04-19T15:22:08;13.10;84.60
19152;DHT22;9708;53.114;9.388;2023-04-19T15:24:35;13.10;83.30
19152;DHT22;9708;53.114;9.388;2023-04-19T15:27:02;13.00;83.60
19152;DHT22;9708;53.114;9.388;2023-04-19T15:29:30;13.00;84.80
19152;DHT22;9708;53.114;9.388;2023-04-19T15:31:57;13.00;86.30
19152;DHT22;9708;53.114;9.388;2023-04-19T15:34:24;13.00;85.80
19152;DHT22;9708;53.114;9.388;2023-04-19T15:36:50;13.00;85.50
19152;DHT22;9708;53.114;9.388;2023-04-19T15:39:17;13.00;84.90
19152;DHT22;9708;53.114;9.388;2023-04-19T15:41:44;12.90;84.00
19152;DHT22;9708;53.114;9.388;2023-04-19T15:44:11;13.00;85.60
19152;DHT22;9708;53.114;9.388;2023-04-19T15:46:39;13.00;86.60
19152;DHT22;9708;53.114;9.388;2023-04-19T15:49:06;13.00;84.80
19152;DHT22;9708;53.114;9.388;2023-04-19T15:51:33;12.80;86.00
19152;DHT22;9708;53.114;9.388;2023-04-19T15:54:00;12.70;84.50
19152;DHT22;9708;53.114;9.388;2023-04-19T15:56:27;12.80;86.00
19152;DHT22;9708;53.114;9.388;2023-04-19T15:58:53;12.80;87.90